Time;durP1;ratioP1;P1;durP2;ratioP2;P2;SDS_P1;SDS_P2;PMS_P1;PMS_P2;Temp;Humidity;BMP_temperature;BMP_pressure;BME280_temperature;BME280_humidity;BME280_pressure;Samples;Min_cycle;Max_cycle;Signal;HPM_P1;HPM_P2
2020/12/30 05:00:59;;;;;;;1999.90;999.90;;;4.10;99.90;;;;;;5610428;23;20483;-80
2020/12/30 05:03:28;;;;;;;1999.90;999.90;;;4.20;99.90;;;;;;4900543;29;20868;-77
2020/12/30 05:05:56;;;;;;;1999.90;999.90;;;4.20;99.90;;;;;;4900175;29;20223;-78
2020/12/30 05:08:23;;;;;;;1999.90;999.90;;;4.10;99.90;;;;;;4899905;29;20728;-78
2020/12/30 05:10:52;;;;;;;1999.90;999.90;;;4.10;99.90;;;;;;4899833;29;20231;-77
2020/12/30 05:13:20;;;;;;;1999.90;999.90;;;4.10;99.90;;;;;;4900360;29;20233;-78
2020/12/30 05:15:47;;;;;;;1999.90;999.90;;;4.10;99.90;;;;;;4900955;29;20256;-80
2020/12/30 05:18:14;;;;;;;1999.90;999.90;;;4.10;99.90;;;;;;4899714;29;20204;-80
2020/12/30 05:20:44;;;;;;;1999.90;999.90;;;4.10;99.90;;;;;;4899904;29;20227;-78
2020/12/30 05:23:12;;;;;;;1999.90;999.90;;;4.20;99.90;;;;;;4899392;29;20533;-81
2020/12/30 05:25:41;;;;;;;1999.90;999.90;;;4.20;99.90;;;;;;4897992;29;20423;-78
2020/12/30 05:28:10;;;;;;;1999.90;999.90;;;4.20;99.90;;;;;;4899041;29;20212;-81
2020/12/30 05:30:38;;;;;;;1999.90;999.90;;;4.30;99.90;;;;;;4898625;29;20227;-81
2020/12/30 05:33:05;;;;;;;1999.90;999.90;;;4.30;99.90;;;;;;4899422;29;20259;-82
2020/12/30 05:35:34;;;;;;;1999.90;999.90;;;4.40;99.90;;;;;;4900272;29;20636;-82
2020/12/30 05:38:02;;;;;;;1999.90;999.90;;;4.40;99.90;;;;;;4900172;29;20207;-80
2020/12/30 05:40:31;;;;;;;1999.90;999.90;;;4.30;99.90;;;;;;4909395;29;20227;-82
2020/12/30 05:43:10;;;;;;;1999.90;999.90;;;4.30;99.90;;;;;;4919591;29;20203;-79
2020/12/30 05:45:44;;;;;;;1999.90;999.90;;;4.20;99.90;;;;;;4919384;29;20290;-81
2020/12/30 05:48:13;;;;;;;1999.90;999.90;;;4.00;99.90;;;;;;4918987;29;20206;-79
2020/12/30 05:50:51;;;;;;;1999.90;999.90;;;3.90;99.90;;;;;;4918919;29;20667;-81
2020/12/30 05:53:19;;;;;;;1999.90;999.90;;;3.70;99.90;;;;;;4903374;29;20681;-81
2020/12/30 05:55:47;;;;;;;1999.90;999.90;;;3.70;99.90;;;;;;4901613;29;20204;-82
2020/12/30 05:58:16;;;;;;;1999.90;999.90;;;3.70;99.90;;;;;;4900917;29;20621;-81
2020/12/30 06:00:45;;;;;;;1999.90;999.90;;;3.70;99.90;;;;;;4900453;29;20611;-81
2020/12/30 06:03:13;;;;;;;1999.90;999.90;;;3.60;99.90;;;;;;4902235;29;20196;-79
2020/12/30 06:05:41;;;;;;;1999.90;999.90;;;3.60;99.90;;;;;;4891918;29;20558;-81
2020/12/30 06:08:09;;;;;;;1999.90;999.90;;;3.60;99.90;;;;;;4881606;29;20236;-81
2020/12/30 06:10:42;;;;;;;1999.90;999.90;;;3.60;99.90;;;;;;4882013;29;20232;-80
2020/12/30 06:13:10;;;;;;;1999.90;999.90;;;3.50;99.90;;;;;;4882420;29;20271;-80
2020/12/30 06:15:37;;;;;;;1999.90;999.90;;;3.40;99.90;;;;;;4881881;29;20232;-79
2020/12/30 06:18:05;;;;;;;1999.90;999.90;;;3.40;99.90;;;;;;4880992;29;20244;-82
2020/12/30 06:20:36;;;;;;;1999.90;999.90;;;3.40;99.90;;;;;;4881234;29;20315;-80
2020/12/30 06:23:04;;;;;;;1999.90;999.90;;;3.40;99.90;;;;;;4881321;29;20203;-78
2020/12/30 06:25:34;;;;;;;1999.90;999.90;;;3.30;99.90;;;;;;4881796;29;20232;-79
2020/12/30 06:28:07;;;;;;;1999.90;999.90;;;3.10;99.90;;;;;;4880927;29;20204;-78
2020/12/30 06:30:35;;;;;;;1999.90;999.90;;;3.10;99.90;;;;;;4881194;29;20287;-78
2020/12/30 06:33:02;;;;;;;1999.90;999.90;;;3.20;99.90;;;;;;4881235;29;20273;-79
2020/12/30 06:35:30;;;;;;;1999.90;999.90;;;3.20;99.90;;;;;;4881360;29;20264;-78
2020/12/30 06:37:58;;;;;;;1999.90;999.90;;;3.10;99.90;;;;;;4880978;29;20233;-81
2020/12/30 06:40:30;;;;;;;1999.90;999.90;;;3.10;99.90;;;;;;4881089;29;20215;-80
2020/12/30 06:42:59;;;;;;;1999.90;999.90;;;3.00;99.90;;;;;;4880672;29;20204;-79
2020/12/30 06:45:50;;;;;;;1999.90;999.90;;;2.90;99.90;;;;;;4880848;29;20621;-81
2020/12/30 06:48:21;;;;;;;1999.90;999.90;;;2.90;99.90;;;;;;4880931;29;20208;-79
2020/12/30 06:50:49;;;;;;;1999.90;999.90;;;2.60;99.90;;;;;;4880587;29;20231;-79
2020/12/30 06:53:48;;;;;;;1999.90;999.90;;;2.60;99.90;;;;;;4881278;29;20216;-79
2020/12/30 06:56:15;;;;;;;1999.90;999.90;;;2.70;99.90;;;;;;4897125;29;20191;-79
2020/12/30 06:58:50;;;;;;;1999.90;999.90;;;2.80;99.90;;;;;;4898633;29;20203;-78
2020/12/30 07:01:21;;;;;;;1999.90;999.90;;;2.90;99.90;;;;;;4897315;29;20657;-80
2020/12/30 07:03:49;;;;;;;1999.90;999.90;;;3.00;99.90;;;;;;4898206;29;20255;-79
2020/12/30 07:06:30;;;;;;;1999.90;999.90;;;3.00;99.90;;;;;;4898376;29;20283;-78
2020/12/30 07:09:00;;;;;;;1999.90;999.90;;;3.00;99.90;;;;;;4898394;29;20624;-78
2020/12/30 07:11:49;;;;;;;1999.90;999.90;;;3.00;99.90;;;;;;4899452;29;20227;-78
2020/12/30 07:14:19;;;;;;;1999.90;999.90;;;2.90;99.90;;;;;;4900223;29;20354;-79
2020/12/30 07:16:51;;;;;;;1999.90;999.90;;;2.90;99.90;;;;;;4899709;29;20204;-78
2020/12/30 07:19:21;;;;;;;1999.90;999.90;;;3.00;99.90;;;;;;4898341;29;20676;-79
2020/12/30 07:21:49;;;;;;;1999.90;999.90;;;3.00;99.90;;;;;;4899354;29;20311;-78
2020/12/30 07:24:20;;;;;;;1999.90;999.90;;;2.90;99.90;;;;;;4900081;29;20195;-79
2020/12/30 07:26:48;;;;;;;1999.90;999.90;;;3.00;99.90;;;;;;4899885;29;20227;-79
2020/12/30 07:29:16;;;;;;;1999.90;999.90;;;3.10;99.90;;;;;;4900654;29;20228;-80
2020/12/30 07:31:47;;;;;;;1999.90;999.90;;;3.20;99.90;;;;;;4900165;29;20219;-79
2020/12/30 07:34:15;;;;;;;1999.90;999.90;;;3.10;99.90;;;;;;4900146;29;20207;-79
2020/12/30 07:36:43;;;;;;;1999.90;999.90;;;3.30;99.90;;;;;;4905147;29;20203;-78
2020/12/30 07:39:10;;;;;;;1999.90;999.90;;;3.30;99.90;;;;;;4908790;29;20254;-79
2020/12/30 07:41:37;;;;;;;1999.90;999.90;;;3.40;99.90;;;;;;4910769;29;20279;-79
2020/12/30 07:44:05;;;;;;;1999.90;999.90;;;3.40;99.90;;;;;;4906699;29;20203;-79
2020/12/30 07:46:32;;;;;;;1999.90;999.90;;;3.50;99.90;;;;;;4909574;29;20214;-79
2020/12/30 07:49:13;;;;;;;1999.90;999.90;;;3.60;99.90;;;;;;4910408;29;20254;-78
2020/12/30 07:51:48;;;;;;;1999.90;999.90;;;3.60;99.90;;;;;;4909387;29;20237;-79
2020/12/30 07:54:16;;;;;;;1999.90;999.90;;;3.70;99.90;;;;;;4909080;29;20279;-79
2020/12/30 07:56:43;;;;;;;1999.90;999.90;;;3.80;99.90;;;;;;4908377;29;20192;-78
2020/12/30 07:59:10;;;;;;;1999.90;999.90;;;3.80;99.90;;;;;;4908949;29;20628;-79
2020/12/30 08:01:37;;;;;;;1999.90;999.90;;;3.90;99.90;;;;;;4904833;29;20744;-78
2020/12/30 08:04:10;;;;;;;1999.90;999.90;;;4.00;99.90;;;;;;4909812;29;20207;-79
2020/12/30 08:06:43;;;;;;;1999.90;999.90;;;4.00;99.90;;;;;;4906157;29;20649;-78
2020/12/30 08:09:11;;;;;;;1999.90;999.90;;;3.90;99.90;;;;;;4905759;29;20198;-79
2020/12/30 08:11:47;;;;;;;1999.90;999.90;;;4.00;99.90;;;;;;4908636;29;20222;-79
2020/12/30 08:14:14;;;;;;;1999.90;999.90;;;4.00;99.90;;;;;;4907072;29;20199;-79
2020/12/30 08:16:49;;;;;;;1999.90;999.90;;;4.10;99.90;;;;;;4907425;29;20206;-79
2020/12/30 08:19:38;;;;;;;1999.90;999.90;;;4.00;99.90;;;;;;4905893;29;20246;-79
2020/12/30 08:22:15;;;;;;;1999.90;999.90;;;4.10;99.90;;;;;;4903133;29;20223;-79
2020/12/30 08:24:44;;;;;;;1999.90;999.90;;;4.10;99.90;;;;;;4903819;29;20279;-78
2020/12/30 08:27:12;;;;;;;1999.90;999.90;;;4.10;99.90;;;;;;4903528;29;20227;-78
2020/12/30 08:29:56;;;;;;;1999.90;999.90;;;4.20;99.90;;;;;;4904827;29;20214;-78
2020/12/30 08:32:38;;;;;;;1999.90;999.90;;;4.20;99.90;;;;;;4902535;29;20224;-78
2020/12/30 08:35:08;;;;;;;1999.90;999.90;;;4.10;99.90;;;;;;4903385;29;20263;-77
2020/12/30 08:37:38;;;;;;;1999.90;999.90;;;4.10;99.90;;;;;;4902390;29;20199;-76
2020/12/30 08:40:11;;;;;;;1999.90;999.90;;;4.10;99.90;;;;;;4900991;29;20207;-77
2020/12/30 08:43:05;;;;;;;1999.90;999.90;;;4.20;99.90;;;;;;4901559;29;20211;-78
2020/12/30 08:45:34;;;;;;;1999.90;999.90;;;4.10;99.90;;;;;;4904342;29;20232;-79
2020/12/30 08:48:11;;;;;;;1999.90;999.90;;;4.00;99.90;;;;;;4905859;29;20227;-81
2020/12/30 08:50:39;;;;;;;1999.90;999.90;;;4.00;99.90;;;;;;4905117;29;20294;-79
2020/12/30 08:53:07;;;;;;;1999.90;999.90;;;4.00;99.90;;;;;;4906002;29;20267;-77
2020/12/30 08:55:34;;;;;;;1999.90;999.90;;;3.80;99.90;;;;;;4905780;29;20307;-79
2020/12/30 08:58:01;;;;;;;1999.90;999.90;;;3.90;99.90;;;;;;4905952;29;20207;-77
2020/12/30 09:00:33;;;;;;;1999.90;999.90;;;3.80;99.90;;;;;;4906146;29;20215;-79
2020/12/30 09:03:11;;;;;;;1999.90;999.90;;;3.80;99.90;;;;;;4906723;29;20211;-79
2020/12/30 09:05:40;;;;;;;1999.90;999.90;;;3.80;99.90;;;;;;4906360;29;20271;-78
2020/12/30 09:08:13;;;;;;;1999.90;999.90;;;3.90;99.90;;;;;;4905250;29;20671;-79
2020/12/30 09:10:40;;;;;;;1999.90;999.90;;;4.00;99.90;;;;;;4905683;29;20239;-79
2020/12/30 09:13:11;;;;;;;1999.90;999.90;;;4.10;99.90;;;;;;4905831;29;20232;-78
2020/12/30 09:15:38;;;;;;;1999.90;999.90;;;4.10;99.90;;;;;;4905830;29;20232;-79
2020/12/30 09:18:06;;;;;;;1999.90;999.90;;;4.00;99.90;;;;;;4905907;29;20223;-77
2020/12/30 09:20:33;;;;;;;1999.90;999.90;;;4.10;99.90;;;;;;4904033;29;20283;-77
2020/12/30 09:23:03;;;;;;;1999.90;999.90;;;4.20;99.90;;;;;;4905283;29;20235;-77
2020/12/30 09:25:32;;;;;;;1999.90;999.90;;;4.20;99.90;;;;;;4905794;29;20215;-76
2020/12/30 09:27:59;;;;;;;1999.90;999.90;;;4.30;99.90;;;;;;4905186;29;20231;-77
2020/12/30 09:30:27;;;;;;;1999.90;999.90;;;4.30;99.90;;;;;;4906115;29;20640;-76
2020/12/30 09:32:55;;;;;;;1999.90;999.90;;;4.30;99.90;;;;;;4905820;29;20259;-77
2020/12/30 09:35:27;;;;;;;1999.90;999.90;;;4.30;99.90;;;;;;4906005;29;20283;-77
2020/12/30 09:37:56;;;;;;;1999.90;999.90;;;4.40;99.90;;;;;;4906200;29;20204;-77
2020/12/30 09:40:25;;;;;;;1999.90;999.90;;;4.40;99.90;;;;;;4904777;29;20212;-79
2020/12/30 09:42:53;;;;;;;1999.90;999.90;;;4.40;99.90;;;;;;4904219;29;20215;-77
2020/12/30 09:45:21;;;;;;;1999.90;999.90;;;4.30;99.90;;;;;;4904598;29;20215;-77
2020/12/30 09:47:48;;;;;;;1999.90;999.90;;;4.40;99.90;;;;;;4903744;29;20641;-76
2020/12/30 09:50:17;;;;;;;1999.90;999.90;;;4.40;99.90;;;;;;4904254;29;20236;-77
2020/12/30 09:52:46;;;;;;;1999.90;999.90;;;4.30;99.90;;;;;;4905124;29;20642;-78
2020/12/30 09:55:13;;;;;;;1999.90;999.90;;;4.30;99.90;;;;;;4904992;29;20271;-77
2020/12/30 09:57:41;;;;;;;1999.90;999.90;;;4.20;99.90;;;;;;4904381;29;20211;-76
2020/12/30 10:00:10;;;;;;;1999.90;999.90;;;4.20;99.90;;;;;;4904608;29;20218;-77
2020/12/30 10:02:36;;;;;;;1999.90;999.90;;;4.30;99.90;;;;;;4904450;29;20266;-76
2020/12/30 10:05:04;;;;;;;1999.90;999.90;;;4.30;99.90;;;;;;4906455;29;20215;-76
2020/12/30 10:07:35;;;;;;;1999.90;999.90;;;4.40;99.90;;;;;;4906595;29;20257;-76
2020/12/30 10:10:03;;;;;;;1999.90;999.90;;;4.40;99.90;;;;;;4905629;29;20211;-79
2020/12/30 10:12:29;;;;;;;1999.90;999.90;;;4.40;99.90;;;;;;4905135;29;20223;-78
2020/12/30 10:14:57;;;;;;;1999.90;999.90;;;4.40;99.90;;;;;;4904618;29;20227;-78
2020/12/30 10:17:24;;;;;;;1999.90;999.90;;;4.50;99.90;;;;;;4903177;29;20208;-78
2020/12/30 10:19:51;;;;;;;1999.90;999.90;;;4.60;99.90;;;;;;4902053;29;20211;-77
2020/12/30 10:22:18;;;;;;;1999.90;999.90;;;4.70;99.90;;;;;;4904759;29;20652;-79
2020/12/30 10:24:44;;;;;;;1999.90;999.90;;;4.70;99.90;;;;;;4903398;29;20259;-79
2020/12/30 10:27:12;;;;;;;1999.90;999.90;;;4.80;99.90;;;;;;4903509;29;20655;-78
2020/12/30 10:29:39;;;;;;;1999.90;999.90;;;4.90;99.90;;;;;;4902606;29;20211;-79
2020/12/30 10:32:07;;;;;;;1999.90;999.90;;;4.90;99.90;;;;;;4903148;29;20300;-79
2020/12/30 10:34:35;;;;;;;1999.90;999.90;;;5.00;99.90;;;;;;4902610;29;20207;-79
2020/12/30 10:37:02;;;;;;;1999.90;999.90;;;5.00;99.90;;;;;;4903407;29;20668;-79
2020/12/30 10:39:29;;;;;;;1999.90;999.90;;;5.20;99.90;;;;;;4902586;29;20203;-77
2020/12/30 10:41:57;;;;;;;1999.90;999.90;;;5.30;99.90;;;;;;4902769;29;20227;-79
2020/12/30 10:44:25;;;;;;;1999.90;999.90;;;5.40;99.90;;;;;;4902054;29;20215;-79
2020/12/30 10:46:52;;;;;;;1999.90;999.90;;;5.50;99.90;;;;;;4902095;29;20279;-77
2020/12/30 10:49:21;;;;;;;1999.90;999.90;;;5.70;99.90;;;;;;4903141;29;20653;-78
2020/12/30 10:51:49;;;;;;;1999.90;999.90;;;5.90;99.90;;;;;;4901952;29;20227;-78
2020/12/30 10:54:16;;;;;;;1999.90;999.90;;;6.00;99.90;;;;;;4903150;29;20207;-78
2020/12/30 10:56:46;;;;;;;1999.90;999.90;;;6.20;99.90;;;;;;4902705;29;20203;-80
2020/12/30 10:59:13;;;;;;;1999.90;999.90;;;6.20;99.90;;;;;;4896944;29;20713;-77
2020/12/30 11:01:40;;;;;;;1999.90;999.90;;;6.30;99.90;;;;;;4899623;29;20231;-77
2020/12/30 11:04:07;;;;;;;1999.90;999.90;;;6.30;99.90;;;;;;4899574;29;20214;-79
2020/12/30 11:06:38;;;;;;;1999.90;999.90;;;6.50;99.90;;;;;;4901697;29;20527;-79
2020/12/30 11:09:05;;;;;;;1999.90;999.90;;;6.50;99.90;;;;;;4903025;29;20247;-79
2020/12/30 11:11:32;;;;;;;1999.90;999.90;;;6.40;99.90;;;;;;4902245;29;20756;-79
2020/12/30 11:13:59;;;;;;;1999.90;999.90;;;6.10;99.90;;;;;;4901398;29;20211;-80
2020/12/30 11:16:26;;;;;;;1999.90;999.90;;;6.10;99.90;;;;;;4898841;29;20215;-79
2020/12/30 11:18:53;;;;;;;1999.90;999.90;;;6.10;99.90;;;;;;4898715;29;20267;-78
2020/12/30 11:21:20;;;;;;;1999.90;999.90;;;6.10;99.90;;;;;;4899187;29;20641;-77
2020/12/30 11:23:47;;;;;;;1999.90;999.90;;;6.30;99.90;;;;;;4896547;29;20620;-77
2020/12/30 11:26:15;;;;;;;1999.90;999.90;;;6.30;99.90;;;;;;4896449;29;20206;-78
2020/12/30 11:28:41;;;;;;;1999.90;999.90;;;6.30;99.90;;;;;;4896889;29;20227;-77
2020/12/30 11:31:08;;;;;;;1999.90;999.90;;;6.30;99.90;;;;;;4896697;29;20279;-78
2020/12/30 11:33:36;;;;;;;1999.90;999.90;;;6.40;99.90;;;;;;4896593;29;20188;-77
2020/12/30 11:36:03;;;;;;;1999.90;999.90;;;6.30;99.90;;;;;;4896409;29;20207;-76
2020/12/30 11:38:30;;;;;;;1999.90;999.90;;;6.20;99.90;;;;;;4895938;29;20676;-77
2020/12/30 11:40:58;;;;;;;1999.90;999.90;;;6.30;99.90;;;;;;4896280;29;20227;-77
2020/12/30 11:43:25;;;;;;;1999.90;999.90;;;6.40;99.90;;;;;;4896188;29;20673;-77
2020/12/30 11:45:52;;;;;;;1999.90;999.90;;;6.30;99.90;;;;;;4895156;29;20215;-76
2020/12/30 11:48:20;;;;;;;1999.90;999.90;;;6.20;99.90;;;;;;4896223;29;20282;-76
2020/12/30 11:50:46;;;;;;;1999.90;999.90;;;6.30;99.90;;;;;;4896813;29;20223;-76
2020/12/30 11:53:13;;;;;;;1999.90;999.90;;;6.40;99.90;;;;;;4896519;29;20222;-76
2020/12/30 11:55:40;;;;;;;1999.90;999.90;;;6.40;99.90;;;;;;4897798;29;20207;-76
2020/12/30 11:58:08;;;;;;;1999.90;999.90;;;6.40;99.90;;;;;;4900248;29;20207;-77
2020/12/30 12:00:34;;;;;;;1999.90;999.90;;;6.30;99.90;;;;;;4899715;29;20235;-77
2020/12/30 12:03:01;;;;;;;1999.90;999.90;;;6.40;99.90;;;;;;4899535;29;20697;-76
2020/12/30 12:05:28;;;;;;;1999.90;999.90;;;6.30;99.90;;;;;;4898848;29;20204;-77
2020/12/30 12:07:55;;;;;;;1999.90;999.90;;;6.40;99.90;;;;;;4899719;29;20772;-77
2020/12/30 12:10:22;;;;;;;1999.90;999.90;;;6.50;99.90;;;;;;4900237;29;20259;-76
2020/12/30 12:12:49;;;;;;;1999.90;999.90;;;6.50;99.90;;;;;;4899967;29;20741;-76
2020/12/30 12:15:17;;;;;;;1999.90;999.90;;;6.60;99.90;;;;;;4900282;29;20211;-77
2020/12/30 12:17:43;;;;;;;1999.90;999.90;;;6.70;99.90;;;;;;4899966;29;20773;-76
2020/12/30 12:20:10;;;;;;;1999.90;999.90;;;6.70;99.90;;;;;;4899856;29;20207;-76
2020/12/30 12:22:37;;;;;;;1999.90;999.90;;;6.80;99.90;;;;;;4899686;29;20211;-76
2020/12/30 12:25:04;;;;;;;1999.90;999.90;;;6.80;99.90;;;;;;4899966;29;20207;-76
2020/12/30 12:27:31;;;;;;;1999.90;999.90;;;6.90;99.90;;;;;;4900050;29;20231;-76
2020/12/30 12:29:58;;;;;;;1999.90;999.90;;;6.90;99.90;;;;;;4899896;29;20207;-76
2020/12/30 12:32:27;;;;;;;1999.90;999.90;;;7.00;99.90;;;;;;4899812;29;20231;-76
2020/12/30 12:34:55;;;;;;;1999.90;999.90;;;7.00;99.90;;;;;;4899832;29;20668;-78
2020/12/30 12:37:23;;;;;;;1999.90;999.90;;;7.10;99.90;;;;;;4900231;29;20278;-77
2020/12/30 12:39:52;;;;;;;1999.90;999.90;;;7.10;99.90;;;;;;4900516;29;20211;-77
2020/12/30 12:42:20;;;;;;;1999.90;999.90;;;7.10;99.90;;;;;;4900628;29;20780;-77
2020/12/30 12:44:47;;;;;;;1999.90;999.90;;;7.20;99.90;;;;;;4901814;29;20212;-79
2020/12/30 12:47:14;;;;;;;1999.90;999.90;;;7.30;99.90;;;;;;4902304;29;20796;-77
2020/12/30 12:49:42;;;;;;;1999.90;999.90;;;7.40;99.90;;;;;;4900261;29;20211;-77
2020/12/30 12:52:10;;;;;;;1999.90;999.90;;;7.40;99.90;;;;;;4894858;29;20636;-77
2020/12/30 12:54:36;;;;;;;1999.90;999.90;;;7.50;99.90;;;;;;4901333;29;20204;-78
2020/12/30 12:57:05;;;;;;;1999.90;999.90;;;7.50;99.90;;;;;;4901165;29;20235;-78
2020/12/30 12:59:33;;;;;;;1999.90;999.90;;;7.50;99.90;;;;;;4897778;29;20207;-78
2020/12/30 13:02:00;;;;;;;1999.90;999.90;;;7.60;99.90;;;;;;4898065;29;20235;-76
2020/12/30 13:04:28;;;;;;;1999.90;999.90;;;7.60;99.90;;;;;;4897331;29;20208;-78
2020/12/30 13:06:58;;;;;;;1999.90;999.90;;;7.70;99.90;;;;;;4898071;29;20211;-77
2020/12/30 13:09:25;;;;;;;1999.90;999.90;;;7.80;99.90;;;;;;4898594;29;20215;-77
2020/12/30 13:11:52;;;;;;;1999.90;999.90;;;7.90;99.90;;;;;;4899256;29;20275;-78
2020/12/30 13:14:19;;;;;;;1999.90;999.90;;;7.90;99.90;;;;;;4898816;29;20720;-77
2020/12/30 13:16:47;;;;;;;1999.90;999.90;;;7.90;99.90;;;;;;4899571;29;20631;-77
2020/12/30 13:19:15;;;;;;;1999.90;999.90;;;8.10;99.90;;;;;;4898811;29;20588;-77
2020/12/30 13:21:42;;;;;;;1999.90;999.90;;;8.20;99.90;;;;;;4899482;29;20231;-78
2020/12/30 13:24:10;;;;;;;1999.90;999.90;;;8.40;99.90;;;;;;4899546;29;20212;-77
2020/12/30 13:26:37;;;;;;;1999.90;999.90;;;8.60;99.90;;;;;;4899238;29;20672;-78
2020/12/30 13:29:04;;;;;;;1999.90;999.90;;;8.70;99.60;;;;;;4898528;29;20707;-78
2020/12/30 13:31:32;;;;;;;1999.90;999.90;;;8.70;99.20;;;;;;4899192;29;20231;-77
2020/12/30 13:33:59;;;;;;;1999.90;999.90;;;8.80;99.20;;;;;;4899878;29;20215;-78
2020/12/30 13:36:27;;;;;;;1999.90;999.90;;;8.80;99.10;;;;;;4899327;29;20219;-78
2020/12/30 13:38:55;;;;;;;1999.90;999.90;;;8.90;99.30;;;;;;4898601;29;20207;-79
2020/12/30 13:41:24;;;;;;;1999.90;999.90;;;9.00;99.30;;;;;;4898432;29;20283;-78
2020/12/30 13:43:51;;;;;;;1999.90;999.90;;;8.90;99.30;;;;;;4900745;29;20656;-77
2020/12/30 13:46:19;;;;;;;1999.90;999.90;;;9.00;99.20;;;;;;4898328;29;20203;-78
2020/12/30 13:48:46;;;;;;;1999.90;999.90;;;8.80;99.10;;;;;;4898078;29;20219;-78
2020/12/30 13:51:16;;;;;;;1999.90;999.90;;;8.80;99.70;;;;;;4897001;29;20226;-78
2020/12/30 13:53:43;;;;;;;1999.90;999.90;;;8.90;99.70;;;;;;4903001;29;20203;-78
2020/12/30 13:56:10;;;;;;;1999.90;999.90;;;8.90;99.10;;;;;;4898341;29;20210;-77
2020/12/30 13:58:38;;;;;;;1999.90;999.90;;;8.90;99.50;;;;;;4898334;29;20256;-78
2020/12/30 14:01:05;;;;;;;1999.90;999.90;;;8.90;99.20;;;;;;4898549;29;20279;-77
2020/12/30 14:03:32;;;;;;;1999.90;999.90;;;8.90;99.10;;;;;;4898239;29;20211;-78
2020/12/30 14:05:58;;;;;;;1999.90;999.90;;;9.00;99.40;;;;;;4898096;29;20204;-78
2020/12/30 14:08:25;;;;;;;1999.90;999.90;;;8.90;99.00;;;;;;4897916;29;20227;-78
2020/12/30 14:10:52;;;;;;;1999.90;999.90;;;9.10;99.60;;;;;;4897518;29;20216;-79
2020/12/30 14:13:20;;;;;;;1999.90;999.90;;;9.10;99.00;;;;;;4897232;29;20624;-78
2020/12/30 14:15:48;;;;;;;1999.90;999.90;;;9.10;99.50;;;;;;4898002;29;20199;-78
2020/12/30 14:18:15;;;;;;;1999.90;999.90;;;9.10;99.10;;;;;;4896636;29;20580;-77
2020/12/30 14:20:41;;;;;;;1999.90;999.90;;;9.20;99.30;;;;;;4895365;29;20739;-78
2020/12/30 14:23:08;;;;;;;1999.90;999.90;;;9.20;99.00;;;;;;4896570;29;20196;-77
2020/12/30 14:25:35;;;;;;;1999.90;999.90;;;9.20;98.70;;;;;;4897524;29;20262;-77
2020/12/30 14:28:02;;;;;;;1999.90;999.90;;;9.10;98.80;;;;;;4897068;29;20216;-78
2020/12/30 14:30:29;;;;;;;1999.90;999.90;;;9.10;99.00;;;;;;4898965;29;20205;-78
2020/12/30 14:32:59;;;;;;;1999.90;999.90;;;9.00;99.20;;;;;;4897134;29;20199;-79
2020/12/30 14:35:26;;;;;;;1999.90;999.90;;;8.80;99.20;;;;;;4895965;29;20259;-79
2020/12/30 14:37:52;;;;;;;1999.90;999.90;;;8.80;99.70;;;;;;4897426;29;20569;-77
2020/12/30 14:40:20;;;;;;;1999.90;999.90;;;8.80;99.60;;;;;;4896789;29;20204;-78
2020/12/30 14:42:47;;;;;;;1999.90;999.90;;;8.70;99.90;;;;;;4897288;29;20229;-79
2020/12/30 14:45:15;;;;;;;1999.90;999.90;;;8.60;99.50;;;;;;4897238;29;20262;-79
2020/12/30 14:47:51;;;;;;;1999.90;999.90;;;8.50;99.90;;;;;;4897493;29;20325;-79
2020/12/30 14:50:19;;;;;;;1999.90;999.90;;;8.40;99.90;;;;;;4896904;29;20714;-77
2020/12/30 14:52:49;;;;;;;1999.90;999.90;;;8.40;99.90;;;;;;4897438;29;20258;-77
2020/12/30 14:55:16;;;;;;;1999.90;999.90;;;8.30;99.90;;;;;;4897493;29;20207;-77
2020/12/30 14:57:43;;;;;;;1999.90;999.90;;;8.20;99.90;;;;;;4897329;29;20208;-76
2020/12/30 15:00:10;;;;;;;1999.90;999.90;;;8.10;99.90;;;;;;4896931;29;20207;-76
2020/12/30 15:02:37;;;;;;;1999.90;999.90;;;8.10;99.90;;;;;;4897670;29;20199;-77
2020/12/30 15:05:04;;;;;;;1999.90;999.90;;;8.00;99.90;;;;;;4897958;29;20241;-78
2020/12/30 15:07:32;;;;;;;1999.90;999.90;;;8.00;99.90;;;;;;4897341;29;20582;-78
2020/12/30 15:09:59;;;;;;;1999.90;999.90;;;7.80;99.90;;;;;;4897695;29;20203;-77
2020/12/30 15:12:26;;;;;;;1999.90;999.90;;;7.60;99.90;;;;;;4896451;29;20227;-76
2020/12/30 15:14:53;;;;;;;1999.90;999.90;;;7.40;99.90;;;;;;4896166;29;20215;-76
2020/12/30 15:17:20;;;;;;;1999.90;999.90;;;7.40;99.90;;;;;;4896445;29;20215;-76
2020/12/30 15:19:47;;;;;;;1999.90;999.90;;;7.40;99.90;;;;;;4896486;29;20203;-75
2020/12/30 15:22:14;;;;;;;1999.90;999.90;;;7.60;99.90;;;;;;4906826;29;20278;-77
2020/12/30 15:24:42;;;;;;;1999.90;999.90;;;7.70;99.90;;;;;;4915028;29;20203;-76
2020/12/30 15:27:09;;;;;;;1999.90;999.90;;;7.70;99.90;;;;;;4915272;29;20210;-77
2020/12/30 15:29:36;;;;;;;1999.90;999.90;;;7.70;99.90;;;;;;4915446;29;20207;-76
2020/12/30 15:32:03;;;;;;;1999.90;999.90;;;7.70;99.90;;;;;;4918587;29;20230;-76
2020/12/30 15:34:30;;;;;;;1999.90;999.90;;;7.70;99.90;;;;;;4919121;29;20631;-76
2020/12/30 15:36:58;;;;;;;1999.90;999.90;;;7.80;99.90;;;;;;4919127;29;20262;-77
2020/12/30 15:39:25;;;;;;;1999.90;999.90;;;7.90;99.90;;;;;;4919353;29;20246;-77
2020/12/30 15:41:53;;;;;;;1999.90;999.90;;;7.90;99.90;;;;;;4919235;29;20230;-78
2020/12/30 15:44:20;;;;;;;1999.90;999.90;;;8.20;99.90;;;;;;4919510;29;20649;-78
2020/12/30 15:46:51;;;;;;;1999.90;999.90;;;8.00;99.90;;;;;;4919237;29;20202;-78
2020/12/30 15:49:18;;;;;;;1999.90;999.90;;;7.90;99.90;;;;;;4919241;29;20214;-78
2020/12/30 15:51:50;;;;;;;1999.90;999.90;;;7.50;99.90;;;;;;4919005;29;20294;-78
2020/12/30 15:54:17;;;;;;;1999.90;999.90;;;7.60;99.90;;;;;;4919324;29;20198;-77
2020/12/30 15:56:47;;;;;;;1999.90;999.90;;;7.50;99.90;;;;;;4911096;29;20207;-77
2020/12/30 15:59:15;;;;;;;1999.90;999.90;;;7.50;99.90;;;;;;4900107;29;20211;-77
2020/12/30 16:01:42;;;;;;;1999.90;999.90;;;7.30;99.90;;;;;;4900430;29;20266;-77
2020/12/30 16:04:10;;;;;;;1999.90;999.90;;;7.30;99.90;;;;;;4905381;29;20203;-80
2020/12/30 16:06:37;;;;;;;1999.90;999.90;;;7.30;99.90;;;;;;4905189;29;20204;-76
2020/12/30 16:09:04;;;;;;;1999.90;999.90;;;7.20;99.90;;;;;;4899968;29;20776;-77
2020/12/30 16:11:31;;;;;;;1999.90;999.90;;;7.10;99.90;;;;;;4899924;29;20279;-77
2020/12/30 16:13:57;;;;;;;1999.90;999.90;;;7.10;99.90;;;;;;4900486;29;20728;-77
2020/12/30 16:16:25;;;;;;;1999.90;999.90;;;7.20;99.90;;;;;;4900318;29;20673;-77
2020/12/30 16:18:52;;;;;;;1999.90;999.90;;;7.40;99.90;;;;;;4911961;29;20664;-77
2020/12/30 16:21:19;;;;;;;1999.90;999.90;;;7.50;99.90;;;;;;4919692;29;20293;-79
2020/12/30 16:23:47;;;;;;;1999.90;999.90;;;7.20;99.90;;;;;;4918989;29;20210;-77
2020/12/30 16:26:14;;;;;;;1999.90;999.90;;;7.10;99.90;;;;;;4919829;29;20214;-77
2020/12/30 16:28:44;;;;;;;1999.90;999.90;;;7.20;99.90;;;;;;4910836;29;20314;-77
2020/12/30 16:31:11;;;;;;;1999.90;999.90;;;7.20;99.90;;;;;;4899432;29;20306;-77
2020/12/30 16:33:42;;;;;;;1999.90;999.90;;;7.30;99.90;;;;;;4901269;29;20215;-77
2020/12/30 16:36:09;;;;;;;1999.90;999.90;;;7.40;99.90;;;;;;4900239;29;20199;-78
2020/12/30 16:38:39;;;;;;;1999.90;999.90;;;7.30;99.90;;;;;;4899214;29;20199;-76
2020/12/30 16:41:07;;;;;;;1999.90;999.90;;;7.20;99.90;;;;;;4900497;29;20246;-77
2020/12/30 16:43:34;;;;;;;1999.90;999.90;;;7.20;99.90;;;;;;4905373;29;20203;-76
2020/12/30 16:46:02;;;;;;;1999.90;999.90;;;7.00;99.90;;;;;;4917949;29;20743;-77
2020/12/30 16:48:29;;;;;;;1999.90;999.90;;;7.00;99.90;;;;;;4917681;29;20231;-76
2020/12/30 16:50:57;;;;;;;1999.90;999.90;;;7.10;99.90;;;;;;4918215;29;20230;-77
2020/12/30 16:53:25;;;;;;;1999.90;999.90;;;7.30;99.90;;;;;;4919098;29;20286;-77
2020/12/30 16:55:52;;;;;;;1999.90;999.90;;;7.40;99.90;;;;;;4902169;29;20255;-78
2020/12/30 16:58:19;;;;;;;1999.90;999.90;;;7.50;99.90;;;;;;4899394;29;20199;-78
2020/12/30 17:00:47;;;;;;;1999.90;999.90;;;7.60;99.90;;;;;;4899325;29;20235;-76
2020/12/30 17:03:14;;;;;;;1999.90;999.90;;;7.60;99.90;;;;;;4898750;29;20208;-77
2020/12/30 17:05:40;;;;;;;1999.90;999.90;;;7.50;99.90;;;;;;4899218;29;20215;-77
2020/12/30 17:08:08;;;;;;;1999.90;999.90;;;7.50;99.90;;;;;;4899000;29;20227;-79
2020/12/30 17:10:35;;;;;;;1999.90;999.90;;;7.60;99.90;;;;;;4899273;29;20232;-78
2020/12/30 17:13:02;;;;;;;1999.90;999.90;;;7.50;99.90;;;;;;4898671;29;20632;-79
2020/12/30 17:15:29;;;;;;;1999.90;999.90;;;7.40;99.90;;;;;;4899101;29;20211;-78